Accueil
METAR-TAF:

METAR-TAF

Aéroports :

Aéroport international du Kansai

Kansai, Japon

latitude: 34-25N, longitude: 135-15E, altitude: 5 m

Observation

Le bulletin a été fait il y a 30 minutes, à 09:00 UTC
Vent 2 kt de direction variable
Température 26°C
Humidité 65%
Pression 1013 hPa
Visibilité 10 km ou plus
Quelques nuages à une hauteur de 2500 ft
Nuages fragmentés

METAR: RJBB 220900Z VRB02KT 9999 FEW025 BKN/// 26/19 Q1013 BECMG 35006KT

Heure: 18:30 (09:30 UTC)

Prévision

Le bulletin a été fait il y a 4 heures et 25 minutes, à 05:05 UTC
Prévision valable du 22 à 06 UTC au 23 à 12 UTC
Vent 4 kt de ouest/sud-ouest
Visibilité 10 km ou plus
Quelques nuages à une hauteur de 2000 ft
Nuages épars à une hauteur de 4500 ft
Evoluant progressivement
du 22 à 08 UTC au 22 à 10 UTC
Vent 7 kt de nord

TAF: RJBB 220505Z 2206/2312 25004KT 9999 FEW020 SCT045 BECMG 2208/2210 35007KT

Observations et prévisions météorologiques de plus de 4000 aéroports (messages METAR et TAF).

Les stations disponibles sont représentées par des disques jaunes et rouges sur la carte.

Passer la souris dessus pour voir le nom de la station.

Cliquer dessus pour voir les observations et prévisions météorologiques.

Pour changer de carte: cliquez sur les boutons verts avec une croix noire pour zoomer, sur le bouton vert avec un tiret pour effectuer un zoom arrière, ou sur les flèches vertes pour les cartes adjacentes.


METAR-TAF: